createdAt,value
2017-10-27T00:00:40.451Z,99.90
2017-10-27T00:03:09.727Z,99.90
2017-10-27T00:05:39.035Z,99.90
2017-10-27T00:08:08.409Z,99.90
2017-10-27T00:10:37.665Z,99.90
2017-10-27T00:13:06.951Z,99.90
2017-10-27T00:15:36.215Z,99.90
2017-10-27T00:18:05.482Z,99.90
2017-10-27T00:20:34.755Z,99.90
2017-10-27T00:23:04.025Z,99.90
2017-10-27T00:25:33.341Z,99.90
2017-10-27T00:28:02.598Z,99.90
2017-10-27T00:30:31.859Z,99.90
2017-10-27T00:33:01.321Z,99.90
2017-10-27T00:35:30.745Z,99.90
2017-10-27T00:38:00.041Z,99.90
2017-10-27T00:40:29.313Z,99.90
2017-10-27T00:42:58.750Z,99.90
2017-10-27T00:45:28.025Z,99.90
2017-10-27T00:47:58.084Z,99.90
2017-10-27T00:50:27.513Z,99.90
2017-10-27T00:52:58.320Z,99.90
2017-10-27T00:55:27.579Z,99.90
2017-10-27T00:57:56.836Z,99.90
2017-10-27T01:00:26.112Z,99.90
2017-10-27T01:02:55.387Z,99.90
2017-10-27T01:05:25.429Z,99.90
2017-10-27T01:07:54.721Z,99.90
2017-10-27T01:10:24.007Z,99.90
2017-10-27T01:12:53.275Z,99.90
2017-10-27T01:15:22.536Z,99.90
2017-10-27T01:17:51.817Z,99.90
2017-10-27T01:20:21.090Z,99.90
2017-10-27T01:22:50.396Z,99.90
2017-10-27T01:25:19.647Z,99.90
2017-10-27T01:27:48.945Z,99.90
2017-10-27T01:30:18.217Z,99.90
2017-10-27T01:32:47.461Z,99.90
2017-10-27T01:35:16.818Z,99.90
2017-10-27T01:37:46.856Z,99.90
2017-10-27T01:40:16.270Z,99.90
2017-10-27T01:42:45.537Z,99.90
2017-10-27T01:45:14.790Z,99.90
2017-10-27T01:47:44.070Z,99.90
2017-10-27T01:50:13.346Z,99.90
2017-10-27T01:52:42.622Z,99.90
2017-10-27T01:55:11.918Z,99.90
2017-10-27T01:57:41.212Z,99.90
2017-10-27T02:00:10.464Z,99.90
2017-10-27T02:02:40.471Z,99.90
2017-10-27T02:05:09.874Z,99.90
2017-10-27T02:07:40.058Z,99.90
2017-10-27T02:10:09.366Z,99.90
2017-10-27T02:12:38.620Z,99.90
2017-10-27T02:15:07.902Z,99.90
2017-10-27T02:17:37.955Z,99.80
2017-10-27T02:20:07.218Z,99.70
2017-10-27T02:22:36.482Z,99.90
2017-10-27T02:25:05.747Z,99.80
2017-10-27T02:27:34.992Z,99.90
2017-10-27T02:30:04.340Z,97.80
2017-10-27T02:32:33.587Z,97.80
2017-10-27T02:35:02.850Z,96.70
2017-10-27T02:37:32.423Z,96.70
2017-10-27T02:40:01.674Z,97.60
2017-10-27T02:42:30.931Z,98.00
2017-10-27T02:45:00.175Z,97.60
2017-10-27T02:47:29.434Z,97.80
2017-10-27T02:49:59.466Z,97.90
2017-10-27T02:52:28.755Z,97.90
2017-10-27T02:54:58.038Z,98.00
2017-10-27T02:57:27.289Z,98.60
2017-10-27T02:59:56.557Z,99.10
2017-10-27T03:02:26.559Z,99.60
2017-10-27T03:04:56.030Z,99.60
2017-10-27T03:07:25.278Z,99.60
2017-10-27T03:09:55.311Z,99.90
2017-10-27T03:12:24.558Z,99.90
2017-10-27T03:14:53.859Z,99.80
2017-10-27T03:17:23.331Z,99.80
2017-10-27T03:19:52.582Z,99.90
2017-10-27T03:22:21.847Z,99.90
2017-10-27T03:24:51.313Z,99.50
2017-10-27T03:27:20.579Z,99.70
2017-10-27T03:29:49.819Z,99.90
2017-10-27T03:32:19.838Z,99.90
2017-10-27T03:34:49.219Z,99.90
2017-10-27T03:37:18.488Z,99.90
2017-10-27T03:39:48.127Z,99.80
2017-10-27T03:42:17.529Z,99.90
2017-10-27T03:44:46.834Z,99.90
2017-10-27T03:47:16.069Z,99.90
2017-10-27T03:49:45.441Z,99.70
2017-10-27T03:52:15.467Z,99.60
2017-10-27T03:54:44.826Z,99.60
2017-10-27T03:57:14.088Z,99.40
2017-10-27T03:59:43.331Z,98.90
2017-10-27T04:02:12.768Z,98.90
2017-10-27T04:04:42.027Z,99.00
2017-10-27T04:07:11.286Z,99.10
2017-10-27T04:09:40.559Z,99.10
2017-10-27T04:12:09.799Z,99.10
2017-10-27T04:14:39.288Z,98.80
2017-10-27T04:17:09.299Z,98.70
2017-10-27T04:19:38.542Z,98.70
2017-10-27T04:22:07.820Z,98.70
2017-10-27T04:24:37.099Z,98.80
2017-10-27T04:27:07.131Z,98.60
2017-10-27T04:29:36.380Z,98.70
2017-10-27T04:32:05.645Z,98.30
2017-10-27T04:34:34.998Z,98.80
2017-10-27T04:37:04.417Z,99.20
2017-10-27T04:39:34.457Z,99.30
2017-10-27T04:42:03.848Z,99.40
2017-10-27T04:44:33.894Z,98.80
2017-10-27T04:47:03.147Z,98.80
2017-10-27T04:49:34.067Z,98.50
2017-10-27T04:52:03.319Z,98.50
2017-10-27T04:54:33.354Z,99.20
2017-10-27T04:57:02.636Z,99.20
2017-10-27T04:59:31.866Z,99.00
2017-10-27T05:02:01.156Z,99.40
2017-10-27T05:04:30.403Z,98.80
2017-10-27T05:06:59.679Z,99.40
2017-10-27T05:09:28.950Z,99.30
2017-10-27T05:11:58.188Z,99.60
2017-10-27T05:14:27.447Z,99.10
2017-10-27T05:17:02.818Z,99.50
2017-10-27T05:19:37.535Z,99.50
2017-10-27T05:22:12.186Z,99.40
2017-10-27T05:24:41.469Z,99.50
2017-10-27T05:27:10.764Z,99.70
2017-10-27T05:29:40.798Z,99.70
2017-10-27T05:32:10.153Z,99.70
2017-10-27T05:34:40.282Z,99.30
2017-10-27T05:37:10.309Z,99.10
2017-10-27T05:39:39.557Z,99.10
2017-10-27T05:42:09.023Z,98.90
2017-10-27T05:44:40.369Z,98.70
2017-10-27T05:47:10.386Z,99.00
2017-10-27T05:49:39.659Z,98.90
2017-10-27T05:52:08.914Z,99.10
2017-10-27T05:54:38.210Z,99.10
2017-10-27T05:57:07.451Z,99.20
2017-10-27T05:59:36.701Z,99.30
2017-10-27T06:02:05.953Z,98.90
2017-10-27T06:04:35.389Z,99.00
2017-10-27T06:07:04.640Z,99.10
2017-10-27T06:09:33.885Z,98.30
2017-10-27T06:12:03.142Z,98.90
2017-10-27T06:14:32.390Z,98.60
2017-10-27T06:17:01.680Z,98.50
2017-10-27T06:19:31.692Z,98.20
2017-10-27T06:22:00.950Z,98.20
2017-10-27T06:24:30.217Z,98.30
2017-10-27T06:27:00.219Z,98.60
2017-10-27T06:29:29.514Z,98.60
2017-10-27T06:31:58.759Z,98.70
2017-10-27T06:34:28.003Z,98.70
2017-10-27T06:36:57.266Z,98.30
2017-10-27T06:39:26.650Z,98.10
2017-10-27T06:41:55.907Z,98.30
2017-10-27T06:44:25.183Z,98.20
2017-10-27T06:46:54.428Z,98.20
2017-10-27T06:49:23.695Z,97.90
2017-10-27T06:51:52.948Z,97.80
2017-10-27T06:54:22.426Z,97.60
2017-10-27T06:56:52.538Z,97.30
2017-10-27T06:59:22.579Z,97.50
2017-10-27T07:01:51.857Z,97.50
2017-10-27T07:04:21.158Z,97.60
2017-10-27T07:06:50.430Z,97.30
2017-10-27T07:09:19.805Z,97.40
2017-10-27T07:11:49.965Z,97.40
2017-10-27T07:14:19.227Z,96.90
2017-10-27T07:16:48.489Z,96.50
2017-10-27T07:19:17.757Z,96.30
2017-10-27T07:21:47.139Z,96.00
2017-10-27T07:24:16.398Z,95.80
2017-10-27T07:26:45.674Z,95.80
2017-10-27T07:29:14.925Z,95.20
2017-10-27T07:31:44.246Z,92.50
2017-10-27T07:34:13.542Z,87.70
2017-10-27T07:36:42.826Z,81.30
2017-10-27T07:39:12.086Z,76.50
2017-10-27T07:41:41.416Z,71.80
2017-10-27T07:44:10.826Z,63.90
2017-10-27T07:46:40.228Z,57.10
2017-10-27T07:49:10.327Z,62.60
2017-10-27T07:51:40.350Z,62.70
2017-10-27T07:54:09.627Z,62.70
2017-10-27T07:56:39.053Z,61.60
2017-10-27T07:59:09.087Z,54.90
2017-10-27T08:01:38.358Z,54.90
2017-10-27T08:04:07.646Z,52.10
2017-10-27T08:06:36.899Z,50.60
2017-10-27T08:09:06.148Z,54.90
2017-10-27T08:11:35.480Z,59.80
2017-10-27T08:14:05.602Z,60.30
2017-10-27T08:16:35.726Z,60.60
2017-10-27T08:19:05.727Z,55.40
2017-10-27T08:21:35.133Z,55.40
2017-10-27T08:24:05.166Z,49.70
2017-10-27T08:26:34.434Z,49.60
2017-10-27T08:29:03.719Z,50.30
2017-10-27T08:31:33.476Z,51.20
2017-10-27T08:34:02.759Z,47.90
2017-10-27T08:36:32.010Z,45.50
2017-10-27T08:39:01.295Z,41.80
2017-10-27T08:41:30.545Z,39.90
2017-10-27T08:43:59.793Z,38.50
2017-10-27T08:46:29.087Z,38.90
2017-10-27T08:48:58.364Z,38.70
2017-10-27T08:51:27.673Z,40.60
2017-10-27T08:53:56.926Z,42.20
2017-10-27T08:56:26.199Z,41.80
2017-10-27T08:58:55.477Z,41.60
2017-10-27T09:01:25.526Z,43.90
2017-10-27T09:03:54.794Z,43.80
2017-10-27T09:06:24.047Z,43.20
2017-10-27T09:08:53.493Z,42.60
2017-10-27T09:11:22.745Z,41.00
2017-10-27T09:13:52.093Z,41.10
2017-10-27T09:16:21.358Z,41.80
2017-10-27T09:18:50.654Z,41.10
2017-10-27T09:21:19.941Z,39.70
2017-10-27T09:23:49.233Z,41.10
2017-10-27T09:26:18.492Z,38.90
2017-10-27T09:28:47.812Z,38.30
2017-10-27T09:31:17.094Z,38.20
2017-10-27T09:33:47.130Z,38.60
2017-10-27T09:36:17.346Z,37.70
2017-10-27T09:38:46.776Z,37.60
2017-10-27T09:41:16.068Z,38.50
2017-10-27T09:43:46.090Z,39.70
2017-10-27T09:46:15.375Z,39.60
2017-10-27T09:48:44.791Z,38.20
2017-10-27T09:51:14.802Z,38.00
2017-10-27T09:53:44.221Z,37.50
2017-10-27T09:56:14.233Z,39.70
2017-10-27T09:58:43.504Z,39.70
2017-10-27T10:01:12.754Z,38.40
2017-10-27T10:03:42.036Z,39.10
2017-10-27T10:06:12.055Z,39.80
2017-10-27T10:08:41.310Z,39.80
2017-10-27T10:11:10.606Z,41.40
2017-10-27T10:13:39.878Z,40.30
2017-10-27T10:16:10.018Z,39.80
2017-10-27T10:18:39.283Z,39.20
2017-10-27T10:21:08.645Z,38.40
2017-10-27T10:23:37.951Z,38.90
2017-10-27T10:26:08.709Z,39.60
2017-10-27T10:28:37.999Z,39.60
2017-10-27T10:31:07.266Z,41.70
2017-10-27T10:33:36.528Z,38.70
2017-10-27T10:36:05.802Z,39.80
2017-10-27T10:38:35.949Z,44.70
2017-10-27T10:41:05.987Z,44.80
2017-10-27T10:43:35.262Z,44.30
2017-10-27T10:46:04.521Z,43.10
2017-10-27T10:48:33.802Z,40.60
2017-10-27T10:51:03.094Z,39.80
2017-10-27T10:53:32.387Z,42.50
2017-10-27T10:56:01.667Z,44.80
2017-10-27T10:58:31.803Z,45.50
2017-10-27T11:01:01.090Z,45.50
2017-10-27T11:03:31.118Z,50.50
2017-10-27T11:06:00.370Z,50.40
2017-10-27T11:08:29.642Z,51.50
2017-10-27T11:10:58.913Z,54.80
2017-10-27T11:13:28.212Z,51.50
2017-10-27T11:15:58.239Z,44.60
2017-10-27T11:18:27.525Z,44.40
2017-10-27T11:20:56.988Z,43.60
2017-10-27T11:23:26.247Z,43.20
2017-10-27T11:25:55.510Z,44.40
2017-10-27T11:28:25.030Z,46.10
2017-10-27T11:30:55.079Z,48.50
2017-10-27T11:33:24.326Z,48.40
2017-10-27T11:35:53.774Z,51.90
2017-10-27T11:38:23.079Z,52.70
2017-10-27T11:40:52.343Z,48.70
2017-10-27T11:43:21.635Z,48.40
2017-10-27T11:45:50.903Z,45.70
2017-10-27T11:48:20.182Z,44.10
2017-10-27T11:50:49.450Z,42.30
2017-10-27T11:53:19.510Z,41.50
2017-10-27T11:55:48.856Z,41.60
2017-10-27T11:58:18.208Z,43.50
2017-10-27T12:00:47.550Z,44.00
2017-10-27T12:03:16.831Z,44.10
2017-10-27T12:05:46.098Z,44.30
2017-10-27T12:08:15.354Z,43.30
2017-10-27T12:10:44.786Z,41.80
2017-10-27T12:13:14.294Z,42.40
2017-10-27T12:15:43.542Z,42.30
2017-10-27T12:18:12.818Z,41.60
2017-10-27T12:20:42.098Z,39.40
2017-10-27T12:23:11.353Z,42.00
2017-10-27T12:25:40.626Z,42.40
2017-10-27T12:28:09.882Z,44.00
2017-10-27T12:30:39.336Z,45.70
2017-10-27T12:33:10.086Z,48.20
2017-10-27T12:35:39.340Z,48.20
2017-10-27T12:38:08.588Z,48.60
2017-10-27T12:40:37.870Z,48.80
2017-10-27T12:43:07.138Z,48.60
2017-10-27T12:45:36.392Z,49.00
2017-10-27T12:48:05.662Z,50.10
2017-10-27T12:50:34.961Z,51.40
2017-10-27T12:53:04.207Z,51.80
2017-10-27T12:55:34.336Z,52.90
2017-10-27T12:58:03.614Z,54.20
2017-10-27T13:00:32.874Z,56.50
2017-10-27T13:03:02.909Z,56.10
2017-10-27T13:05:32.307Z,56.10
2017-10-27T13:08:02.427Z,56.10
2017-10-27T13:10:32.461Z,56.10
2017-10-27T13:13:01.743Z,56.10
2017-10-27T13:15:31.005Z,55.10
2017-10-27T13:18:00.279Z,56.50
2017-10-27T13:20:29.521Z,57.40
2017-10-27T13:22:58.803Z,57.50
2017-10-27T13:25:28.473Z,57.90
2017-10-27T13:27:57.707Z,58.60
2017-10-27T13:30:26.959Z,59.40
2017-10-27T13:32:56.269Z,59.90
2017-10-27T13:35:26.346Z,59.60
2017-10-27T13:37:55.616Z,59.70
2017-10-27T13:40:24.896Z,59.60
2017-10-27T13:42:54.146Z,60.20
2017-10-27T13:45:23.415Z,60.00
2017-10-27T13:47:52.674Z,62.40
2017-10-27T13:50:22.795Z,61.80
2017-10-27T13:52:52.867Z,62.30
2017-10-27T13:55:22.232Z,62.20
2017-10-27T13:57:52.263Z,63.00
2017-10-27T14:00:21.561Z,63.00
2017-10-27T14:02:51.026Z,63.10
2017-10-27T14:05:20.448Z,63.90
2017-10-27T14:07:50.687Z,64.00
2017-10-27T14:10:20.084Z,64.00
2017-10-27T14:12:50.105Z,65.00
2017-10-27T14:15:19.386Z,65.00
2017-10-27T14:17:48.775Z,64.80
2017-10-27T14:20:18.038Z,65.60
2017-10-27T14:22:47.298Z,66.00
2017-10-27T14:25:16.707Z,66.00
2017-10-27T14:27:46.758Z,65.40
2017-10-27T14:30:16.145Z,64.80
2017-10-27T14:32:45.479Z,63.80
2017-10-27T14:35:14.743Z,65.30
2017-10-27T14:37:44.774Z,66.20
2017-10-27T14:40:14.019Z,66.20
2017-10-27T14:42:43.307Z,66.70
2017-10-27T14:45:12.592Z,66.80
2017-10-27T14:47:41.848Z,68.40
2017-10-27T14:50:12.008Z,75.30
2017-10-27T14:52:41.258Z,75.20
2017-10-27T14:55:10.523Z,76.60
2017-10-27T14:57:39.769Z,80.60
2017-10-27T15:00:09.196Z,80.10
2017-10-27T15:02:38.470Z,81.50
2017-10-27T15:05:08.707Z,84.10
2017-10-27T15:07:38.007Z,83.20
2017-10-27T15:10:07.873Z,83.50
2017-10-27T15:12:37.168Z,84.50
2017-10-27T15:15:06.430Z,83.10
2017-10-27T15:17:35.708Z,83.70
2017-10-27T15:20:05.208Z,85.20
2017-10-27T15:22:34.468Z,84.30
2017-10-27T15:25:03.730Z,84.30
2017-10-27T15:27:32.984Z,86.50
2017-10-27T15:30:02.434Z,86.30
2017-10-27T15:32:32.492Z,87.80
2017-10-27T15:35:01.740Z,87.70
2017-10-27T15:37:31.032Z,87.70
2017-10-27T15:40:01.843Z,87.80
2017-10-27T15:42:31.146Z,87.80
2017-10-27T15:45:00.392Z,89.40
2017-10-27T15:47:29.643Z,88.70
2017-10-27T15:49:58.970Z,89.90
2017-10-27T15:52:28.267Z,89.70
2017-10-27T15:54:57.501Z,90.10
2017-10-27T15:57:26.892Z,90.50
2017-10-27T15:59:56.159Z,90.60
2017-10-27T16:02:25.443Z,90.80
2017-10-27T16:04:54.843Z,91.00
2017-10-27T16:07:24.142Z,91.30
2017-10-27T16:09:53.409Z,91.40
2017-10-27T16:12:22.797Z,91.00
2017-10-27T16:14:52.067Z,90.90
2017-10-27T16:17:21.606Z,91.00
2017-10-27T16:19:51.731Z,91.30
2017-10-27T16:22:21.784Z,91.20
2017-10-27T16:24:51.069Z,91.20
2017-10-27T16:27:20.541Z,91.50
2017-10-27T16:29:50.567Z,91.20
2017-10-27T16:32:20.082Z,91.20
2017-10-27T16:34:50.098Z,91.10
2017-10-27T16:37:19.607Z,91.10
2017-10-27T16:39:49.022Z,91.30
2017-10-27T16:42:19.071Z,91.50
2017-10-27T16:44:48.326Z,91.50
2017-10-27T16:47:17.594Z,91.30
2017-10-27T16:49:47.056Z,91.30
2017-10-27T16:52:16.311Z,91.40
2017-10-27T16:54:45.648Z,91.60
2017-10-27T16:57:15.691Z,91.90
2017-10-27T16:59:44.946Z,91.90
2017-10-27T17:02:14.194Z,92.20
2017-10-27T17:04:43.643Z,92.30
2017-10-27T17:07:12.911Z,92.20
2017-10-27T17:09:42.206Z,92.20
2017-10-27T17:12:11.477Z,92.40
2017-10-27T17:14:40.776Z,92.10
2017-10-27T17:17:10.169Z,92.40
2017-10-27T17:19:40.413Z,92.30
2017-10-27T17:22:09.628Z,92.30
2017-10-27T17:24:38.911Z,92.40
2017-10-27T17:27:08.202Z,92.00
2017-10-27T17:29:38.250Z,92.00
2017-10-27T17:32:07.631Z,92.00
2017-10-27T17:34:36.937Z,91.80
2017-10-27T17:37:06.977Z,91.60
2017-10-27T17:39:36.230Z,91.60
2017-10-27T17:42:05.508Z,91.80
2017-10-27T17:44:34.939Z,91.90
2017-10-27T17:47:04.960Z,92.20
2017-10-27T17:49:34.281Z,92.20
2017-10-27T17:52:03.515Z,92.40
2017-10-27T17:54:32.806Z,92.60
2017-10-27T17:57:02.074Z,93.50
2017-10-27T17:59:32.186Z,94.10
2017-10-27T18:02:02.276Z,94.20
2017-10-27T18:04:31.719Z,94.20
2017-10-27T18:07:00.982Z,94.40
2017-10-27T18:09:30.230Z,94.60
2017-10-27T18:12:00.266Z,95.30
2017-10-27T18:14:29.508Z,95.30
2017-10-27T18:16:58.959Z,95.50
2017-10-27T18:19:28.378Z,95.40
2017-10-27T18:21:57.630Z,95.50
2017-10-27T18:24:26.899Z,95.60
2017-10-27T18:26:56.306Z,95.70
2017-10-27T18:29:25.590Z,95.90
2017-10-27T18:31:54.841Z,95.80
2017-10-27T18:34:24.141Z,95.90
2017-10-27T18:36:53.378Z,96.10
2017-10-27T18:39:22.666Z,96.50
2017-10-27T18:41:51.952Z,96.60
2017-10-27T18:44:21.978Z,96.90
2017-10-27T18:46:51.999Z,96.90
2017-10-27T18:49:22.020Z,97.20
2017-10-27T18:51:51.294Z,97.20
2017-10-27T18:54:20.556Z,97.20
2017-10-27T18:56:49.816Z,97.20
2017-10-27T18:59:20.454Z,97.40
2017-10-27T19:01:49.695Z,97.40
2017-10-27T19:04:18.967Z,97.40
2017-10-27T19:06:48.361Z,97.50
2017-10-27T19:09:17.662Z,97.80
2017-10-27T19:11:47.536Z,97.30
2017-10-27T19:14:16.821Z,97.30
2017-10-27T19:16:46.050Z,97.20
2017-10-27T19:19:16.067Z,97.60
2017-10-27T19:21:45.482Z,97.60
2017-10-27T19:24:15.491Z,98.00
2017-10-27T19:26:44.786Z,98.00
2017-10-27T19:29:14.098Z,98.30
2017-10-27T19:31:44.130Z,98.60
2017-10-27T19:34:14.168Z,98.50
2017-10-27T19:36:43.401Z,98.50
2017-10-27T19:39:12.674Z,98.40
2017-10-27T19:41:41.922Z,98.50
2017-10-27T19:44:11.172Z,99.00
2017-10-27T19:46:40.433Z,99.20
2017-10-27T19:49:09.690Z,99.20
2017-10-27T19:51:38.963Z,99.30
2017-10-27T19:54:08.272Z,99.40
2017-10-27T19:56:38.282Z,99.90
2017-10-27T19:59:07.552Z,99.90
2017-10-27T20:01:36.775Z,99.90
2017-10-27T20:04:06.777Z,99.90
2017-10-27T20:06:36.063Z,99.90
2017-10-27T20:09:05.964Z,99.90
2017-10-27T20:11:35.223Z,99.90
2017-10-27T20:14:04.473Z,99.90
2017-10-27T20:16:33.894Z,99.90
2017-10-27T20:19:03.189Z,99.90
2017-10-27T20:21:33.242Z,99.90
2017-10-27T20:24:02.554Z,99.80
2017-10-27T20:26:31.810Z,99.70
2017-10-27T20:29:01.095Z,99.60
2017-10-27T20:31:30.440Z,99.50
2017-10-27T20:34:00.462Z,99.50
2017-10-27T20:36:29.710Z,99.80
2017-10-27T20:38:59.168Z,99.60
2017-10-27T20:41:29.289Z,99.60
2017-10-27T20:43:58.595Z,99.60
2017-10-27T20:46:27.867Z,99.60
2017-10-27T20:48:57.197Z,99.60
2017-10-27T20:51:26.455Z,99.80
2017-10-27T20:53:55.845Z,99.70
2017-10-27T20:56:25.100Z,99.80
2017-10-27T20:58:54.374Z,99.90
2017-10-27T21:01:24.477Z,99.70
2017-10-27T21:03:53.745Z,99.70
2017-10-27T21:06:23.089Z,99.70
2017-10-27T21:08:52.408Z,99.60
2017-10-27T21:11:22.429Z,99.70
2017-10-27T21:13:51.664Z,99.70
2017-10-27T21:16:20.961Z,99.70
2017-10-27T21:18:50.248Z,99.80
2017-10-27T21:21:19.515Z,99.90
2017-10-27T21:23:48.826Z,99.90
2017-10-27T21:26:18.821Z,99.90
2017-10-27T21:28:48.249Z,99.90
2017-10-27T21:31:18.262Z,99.90
2017-10-27T21:33:47.514Z,99.90
2017-10-27T21:36:16.786Z,99.90
2017-10-27T21:38:46.048Z,99.90
2017-10-27T21:41:15.295Z,99.90
2017-10-27T21:43:44.566Z,99.90
2017-10-27T21:46:14.605Z,99.90
2017-10-27T21:48:44.598Z,99.90
2017-10-27T21:51:13.877Z,99.90
2017-10-27T21:53:43.319Z,99.90
2017-10-27T21:56:12.631Z,99.90
2017-10-27T21:58:42.650Z,99.90
2017-10-27T22:01:12.040Z,99.90
2017-10-27T22:03:42.158Z,99.90
2017-10-27T22:06:12.210Z,99.90
2017-10-27T22:08:41.456Z,99.90
2017-10-27T22:11:10.756Z,99.90
2017-10-27T22:13:40.075Z,99.90
2017-10-27T22:16:09.344Z,99.90
2017-10-27T22:18:38.573Z,99.90
2017-10-27T22:21:08.713Z,99.90
2017-10-27T22:23:38.744Z,99.90
2017-10-27T22:26:08.011Z,99.90
2017-10-27T22:28:37.284Z,99.90
2017-10-27T22:31:06.536Z,99.90
2017-10-27T22:33:36.666Z,99.90
2017-10-27T22:36:05.902Z,99.90
2017-10-27T22:38:35.239Z,99.90
2017-10-27T22:41:04.626Z,99.90
2017-10-27T22:43:34.047Z,99.90
2017-10-27T22:46:03.295Z,99.90
2017-10-27T22:48:32.551Z,99.90
2017-10-27T22:51:01.903Z,99.90
2017-10-27T22:53:31.359Z,99.90
2017-10-27T22:56:00.764Z,99.90
2017-10-27T22:58:30.771Z,99.90
2017-10-27T23:01:01.026Z,99.90
2017-10-27T23:03:30.301Z,99.90
2017-10-27T23:05:59.534Z,99.90
2017-10-27T23:08:28.850Z,99.90
2017-10-27T23:10:58.287Z,99.90
2017-10-27T23:13:27.576Z,99.90
2017-10-27T23:15:56.859Z,99.90
2017-10-27T23:18:26.314Z,99.90
2017-10-27T23:20:56.451Z,99.90
2017-10-27T23:23:26.502Z,99.90
2017-10-27T23:25:55.730Z,99.90
2017-10-27T23:28:25.146Z,99.90
2017-10-27T23:30:54.474Z,99.90
2017-10-27T23:33:24.538Z,99.90
2017-10-27T23:35:53.799Z,99.90
2017-10-27T23:38:23.210Z,99.90
2017-10-27T23:40:52.458Z,99.90
2017-10-27T23:43:21.725Z,99.90
2017-10-27T23:45:51.058Z,99.90
2017-10-27T23:48:20.332Z,99.90
2017-10-27T23:50:49.584Z,99.90
2017-10-27T23:53:18.993Z,99.90
2017-10-27T23:55:49.026Z,99.90
2017-10-27T23:58:18.270Z,99.90
